createdAt,value
2019-04-23T00:00:08.844Z,1.80
2019-04-23T00:05:02.095Z,2.17
2019-04-23T00:15:30.835Z,1.83
2019-04-23T00:20:20.490Z,2.07
2019-04-23T00:30:51.029Z,2.00
2019-04-23T00:35:49.818Z,2.70
2019-04-23T00:40:58.232Z,2.27
2019-04-23T00:45:59.396Z,2.07
2019-04-23T00:51:20.629Z,1.87
2019-04-23T01:01:36.942Z,1.90
2019-04-23T01:06:54.552Z,3.10
2019-04-23T01:11:43.302Z,2.07
2019-04-23T01:16:49.398Z,1.83
2019-04-23T01:21:43.383Z,1.87
2019-04-23T01:33:11.024Z,2.10
2019-04-23T01:38:02.473Z,2.30
2019-04-23T01:43:10.709Z,2.03
2019-04-23T01:48:12.854Z,1.87
2019-04-23T01:53:27.106Z,1.80
2019-04-23T01:58:38.391Z,1.90
2019-04-23T02:03:43.710Z,1.83
2019-04-23T02:08:47.070Z,2.03
2019-04-23T02:13:59.389Z,2.27
2019-04-23T02:19:03.091Z,2.50
2019-04-23T02:24:12.167Z,2.57
2019-04-23T02:29:32.558Z,2.90
2019-04-23T02:34:50.464Z,2.10
2019-04-23T02:44:45.440Z,2.70
2019-04-23T03:00:18.877Z,2.33
2019-04-23T03:05:36.395Z,2.40
2019-04-23T03:21:31.360Z,2.57
2019-04-23T03:42:02.684Z,3.07
2019-04-23T03:47:15.755Z,2.93
2019-04-23T03:52:25.375Z,2.43
2019-04-23T03:57:35.486Z,2.90
2019-04-23T04:02:40.316Z,2.93
2019-04-23T04:07:49.362Z,2.90
2019-04-23T04:18:03.837Z,2.87
2019-04-23T04:23:51.444Z,3.00
2019-04-23T04:28:12.295Z,2.83
2019-04-23T04:33:38.122Z,2.60
2019-04-23T04:38:40.079Z,3.33
2019-04-23T04:43:45.944Z,2.83
2019-04-23T04:54:02.657Z,2.47
2019-04-23T05:04:13.515Z,3.00
2019-04-23T05:14:23.558Z,3.33
2019-04-23T05:19:40.678Z,3.23
2019-04-23T05:24:35.189Z,3.27
2019-04-23T05:29:46.287Z,2.83
2019-04-23T05:34:47.536Z,2.60
2019-04-23T05:39:56.716Z,3.30
2019-04-23T05:45:00.936Z,2.87
2019-04-23T05:50:18.852Z,2.97
2019-04-23T05:55:18.732Z,3.13
2019-04-23T06:00:34.828Z,3.40
2019-04-23T06:05:38.716Z,3.77
2019-04-23T06:10:49.678Z,3.23
2019-04-23T06:15:53.893Z,3.80
2019-04-23T06:21:02.784Z,3.37
2019-04-23T06:26:28.555Z,3.73
2019-04-23T06:36:29.161Z,3.90
2019-04-23T06:46:46.010Z,3.30
2019-04-23T06:51:45.941Z,3.40
2019-04-23T06:56:58.679Z,3.60
2019-04-23T07:02:06.235Z,4.40
2019-04-23T07:07:31.553Z,3.50
2019-04-23T07:12:15.365Z,4.00
2019-04-23T07:17:21.322Z,3.37
2019-04-23T07:22:26.786Z,4.27
2019-04-23T07:27:37.948Z,3.40
2019-04-23T07:43:21.412Z,3.80
2019-04-23T07:48:22.466Z,4.00
2019-04-23T07:53:39.891Z,3.30
2019-04-23T07:58:39.294Z,3.93
2019-04-23T08:03:55.849Z,3.93
2019-04-23T08:09:02.390Z,4.10
2019-04-23T08:14:07.886Z,4.23
2019-04-23T08:19:25.109Z,4.10
2019-04-23T08:24:50.539Z,4.40
2019-04-23T08:29:51.184Z,3.73
2019-04-23T08:35:04.349Z,4.53
2019-04-23T08:40:09.731Z,4.00
2019-04-23T08:50:32.697Z,3.80
2019-04-23T08:56:02.002Z,3.87
2019-04-23T09:16:42.428Z,3.80
2019-04-23T09:21:34.057Z,4.57
2019-04-23T09:26:41.476Z,3.70
2019-04-23T09:37:37.310Z,4.40
2019-04-23T09:47:57.278Z,4.73
2019-04-23T09:53:12.970Z,4.47
2019-04-23T09:58:08.251Z,4.27
2019-04-23T10:03:04.842Z,3.90
2019-04-23T10:08:05.173Z,3.50
2019-04-23T10:13:08.265Z,4.03
2019-04-23T10:18:16.170Z,4.20
2019-04-23T10:23:25.154Z,3.87
2019-04-23T10:28:42.197Z,3.80
2019-04-23T10:33:48.368Z,3.83
2019-04-23T10:39:02.240Z,4.30
2019-04-23T10:44:09.169Z,4.40
2019-04-23T10:50:05.443Z,4.30
2019-04-23T10:55:00.035Z,4.70
2019-04-23T11:00:13.797Z,4.53
2019-04-23T11:05:37.383Z,3.87
2019-04-23T11:10:23.915Z,4.87
2019-04-23T11:15:55.826Z,4.37
2019-04-23T11:25:45.090Z,4.33
2019-04-23T11:30:55.660Z,4.53
2019-04-23T11:36:33.267Z,3.73
2019-04-23T11:41:27.639Z,4.20
2019-04-23T11:46:39.809Z,3.93
2019-04-23T11:51:38.844Z,4.40
2019-04-23T11:57:13.315Z,4.37
2019-04-23T12:01:56.245Z,3.60
2019-04-23T12:17:46.805Z,3.80
2019-04-23T12:27:47.008Z,3.27
2019-04-23T12:33:12.961Z,3.37
2019-04-23T12:38:19.235Z,3.10
2019-04-23T12:43:18.903Z,3.60
2019-04-23T12:48:44.799Z,4.07
2019-04-23T12:58:34.122Z,3.03
2019-04-23T13:03:47.387Z,2.87
2019-04-23T13:09:02.724Z,3.17
2019-04-23T13:14:08.862Z,3.40
2019-04-23T13:19:26.377Z,4.93
2019-04-23T13:24:46.247Z,3.50
2019-04-23T13:29:51.467Z,3.90
2019-04-23T13:40:00.464Z,3.40
2019-04-23T13:45:17.558Z,4.03
2019-04-23T13:50:32.704Z,3.87
2019-04-23T13:55:22.832Z,4.40
2019-04-23T14:00:46.348Z,4.27
2019-04-23T14:06:18.215Z,3.80
2019-04-23T14:16:28.619Z,4.10
2019-04-23T14:26:35.155Z,4.00
2019-04-23T14:31:43.338Z,3.87
2019-04-23T14:36:57.327Z,3.10
2019-04-23T14:42:08.346Z,2.83
2019-04-23T14:47:16.797Z,3.70
2019-04-23T14:52:21.689Z,3.73
2019-04-23T15:02:36.710Z,2.80
2019-04-23T15:12:46.256Z,2.87
2019-04-23T15:17:59.028Z,2.77
2019-04-23T15:33:27.192Z,3.00
2019-04-23T15:38:37.646Z,3.03
2019-04-23T15:43:30.689Z,3.20
2019-04-23T15:48:42.727Z,2.87
2019-04-23T15:53:52.799Z,2.80
2019-04-23T16:03:33.914Z,3.00
2019-04-23T16:14:25.723Z,3.20
2019-04-23T16:19:45.947Z,3.83
2019-04-23T16:24:56.052Z,3.13
2019-04-23T16:30:14.407Z,3.10
2019-04-23T16:35:12.226Z,4.03
2019-04-23T16:45:31.736Z,3.03
2019-04-23T16:50:30.655Z,3.60
2019-04-23T16:55:38.348Z,3.20
2019-04-23T17:01:06.062Z,2.93
2019-04-23T17:06:02.264Z,2.90
2019-04-23T17:16:15.108Z,3.13
2019-04-23T17:21:11.773Z,3.23
2019-04-23T17:26:25.224Z,3.47
2019-04-23T17:31:35.126Z,2.90
2019-04-23T17:42:23.004Z,3.17
2019-04-23T17:47:47.916Z,2.83
2019-04-23T17:53:14.892Z,2.77
2019-04-23T17:57:58.880Z,3.00
2019-04-23T18:08:15.510Z,3.47
2019-04-23T18:13:23.887Z,3.13
2019-04-23T18:18:39.576Z,3.07
2019-04-23T18:23:42.013Z,2.77
2019-04-23T18:29:00.316Z,3.00
2019-04-23T18:34:08.050Z,2.80
2019-04-23T18:39:18.734Z,3.17
2019-04-23T18:44:24.846Z,3.80
2019-04-23T18:49:36.638Z,3.07
2019-04-23T18:54:32.945Z,3.27
2019-04-23T18:59:55.087Z,3.30
2019-04-23T19:05:08.348Z,2.73
2019-04-23T19:10:26.333Z,3.47
2019-04-23T19:15:28.571Z,3.27
2019-04-23T19:20:45.273Z,3.37
2019-04-23T19:25:50.194Z,2.73
2019-04-23T19:31:11.697Z,3.03
2019-04-23T19:36:17.219Z,3.40
2019-04-23T19:41:25.487Z,3.13
2019-04-23T19:51:44.272Z,3.10
2019-04-23T20:02:00.239Z,3.13
2019-04-23T20:12:09.542Z,3.13
2019-04-23T20:22:36.964Z,3.33
2019-04-23T20:27:39.670Z,2.90
2019-04-23T20:43:09.359Z,3.10
2019-04-23T20:48:14.316Z,3.27
2019-04-23T20:53:24.816Z,3.13
2019-04-23T20:58:50.392Z,3.10
2019-04-23T21:14:22.746Z,3.70
2019-04-23T21:24:16.791Z,3.27
2019-04-23T21:29:38.650Z,3.02
2019-04-23T21:34:46.439Z,3.00
2019-04-23T21:40:19.229Z,3.00
2019-04-23T21:45:02.219Z,3.08
2019-04-23T21:50:19.512Z,2.83
2019-04-23T21:55:19.947Z,3.20
2019-04-23T22:00:26.194Z,3.15
2019-04-23T22:05:47.921Z,3.27
2019-04-23T22:10:59.937Z,2.50
2019-04-23T22:16:07.202Z,2.70
2019-04-23T22:21:05.059Z,2.98
2019-04-23T22:26:16.243Z,2.98
2019-04-23T22:31:18.665Z,2.77
2019-04-23T22:36:23.502Z,2.45
2019-04-23T22:41:38.064Z,2.40
2019-04-23T22:56:54.816Z,2.50
2019-04-23T23:02:15.119Z,2.52
2019-04-23T23:07:28.582Z,2.33
2019-04-23T23:12:43.652Z,2.55
2019-04-23T23:17:53.196Z,2.65
2019-04-23T23:22:57.082Z,2.57
2019-04-23T23:28:05.857Z,2.67
2019-04-23T23:33:24.785Z,2.52
2019-04-23T23:38:13.722Z,2.60
2019-04-23T23:43:24.137Z,3.02
2019-04-23T23:48:29.149Z,3.20
2019-04-23T23:53:55.140Z,2.65
2019-04-23T23:58:51.789Z,2.53
